AYMH/HGU METAR and TAF weather

Enter ICAO airport designator
Station Type Date Time Source
AYMH METAR 2022/01/25 04:00 UTC NOAA

AYMH 250400Z 09010KT 9999 FEW050 26/16 Q1018=


Station Type Date Time Source
AYMH Decoded METAR 2022/01/25 04:00 UTC NOAA

Station name not available
Jan 24, 2022 - 11:00 PM EST / 2022.01.25 0400 UTC
Wind: from the E (090 degrees) at 12 MPH (10 KT):0
Visibility: greater than 7 mile(s):0
Sky conditions: mostly clear
Temperature: 78 F (26 C)
Dew Point: 60 F (16 C)
Relative Humidity: 54%
Pressure (altimeter): 30.06 in. Hg (1018 hPa)
ob: AYMH 250400Z 09010KT 9999 FEW050 26/16 Q1018=
cycle: 4

Station Type Date Time Source
AYMH TAF UTC NOAA

Error!

Example: see airport list